sensor_id;sensor_type;location;lat;lon;timestamp;temperature;humidity
3156;DHT22;1588;50.892;7.082;2023-08-21T00:03:15;19.00;99.90
3156;DHT22;1588;50.892;7.082;2023-08-21T00:08:18;18.90;99.90
3156;DHT22;1588;50.892;7.082;2023-08-21T00:13:23;18.90;99.90
3156;DHT22;1588;50.892;7.082;2023-08-21T00:18:27;18.90;99.90
3156;DHT22;1588;50.892;7.082;2023-08-21T00:23:33;18.80;99.90
3156;DHT22;1588;50.892;7.082;2023-08-21T00:28:35;18.80;99.90
3156;DHT22;1588;50.892;7.082;2023-08-21T00:33:39;18.70;99.90
3156;DHT22;1588;50.892;7.082;2023-08-21T00:38:42;18.70;99.90
3156;DHT22;1588;50.892;7.082;2023-08-21T00:44:03;18.60;99.90
3156;DHT22;1588;50.892;7.082;2023-08-21T00:49:08;18.60;99.90
3156;DHT22;1588;50.892;7.082;2023-08-21T00:54:11;18.50;99.90
3156;DHT22;1588;50.892;7.082;2023-08-21T00:59:14;18.40;99.90
3156;DHT22;1588;50.892;7.082;2023-08-21T01:04:18;18.40;99.90
3156;DHT22;1588;50.892;7.082;2023-08-21T01:09:27;18.40;99.90
3156;DHT22;1588;50.892;7.082;2023-08-21T01:14:36;18.30;99.90
3156;DHT22;1588;50.892;7.082;2023-08-21T01:19:43;18.40;99.90
3156;DHT22;1588;50.892;7.082;2023-08-21T01:25:08;18.40;99.90
3156;DHT22;1588;50.892;7.082;2023-08-21T01:30:11;18.30;99.90
3156;DHT22;1588;50.892;7.082;2023-08-21T01:35:14;18.30;99.90
3156;DHT22;1588;50.892;7.082;2023-08-21T01:40:21;18.20;99.90
3156;DHT22;1588;50.892;7.082;2023-08-21T01:45:24;18.20;99.90
3156;DHT22;1588;50.892;7.082;2023-08-21T01:50:27;18.20;99.90
3156;DHT22;1588;50.892;7.082;2023-08-21T01:55:31;18.10;99.90
3156;DHT22;1588;50.892;7.082;2023-08-21T02:00:37;18.10;99.90
3156;DHT22;1588;50.892;7.082;2023-08-21T02:05:48;18.10;99.90
3156;DHT22;1588;50.892;7.082;2023-08-21T02:10:52;18.20;99.90
3156;DHT22;1588;50.892;7.082;2023-08-21T02:15:54;18.10;99.90
3156;DHT22;1588;50.892;7.082;2023-08-21T02:20:57;18.10;99.90
3156;DHT22;1588;50.892;7.082;2023-08-21T02:26:00;18.10;99.90
3156;DHT22;1588;50.892;7.082;2023-08-21T02:31:03;18.10;99.90
3156;DHT22;1588;50.892;7.082;2023-08-21T02:36:06;18.00;99.90
3156;DHT22;1588;50.892;7.082;2023-08-21T02:41:10;17.90;99.90
3156;DHT22;1588;50.892;7.082;2023-08-21T02:46:12;18.00;99.90
3156;DHT22;1588;50.892;7.082;2023-08-21T02:51:15;17.90;99.90
3156;DHT22;1588;50.892;7.082;2023-08-21T02:56:19;17.90;99.90
3156;DHT22;1588;50.892;7.082;2023-08-21T03:01:21;17.90;99.90
3156;DHT22;1588;50.892;7.082;2023-08-21T03:06:24;17.80;99.90
3156;DHT22;1588;50.892;7.082;2023-08-21T03:11:39;17.80;99.90
3156;DHT22;1588;50.892;7.082;2023-08-21T03:16:42;17.80;99.90
3156;DHT22;1588;50.892;7.082;2023-08-21T03:21:44;17.80;99.90
3156;DHT22;1588;50.892;7.082;2023-08-21T03:26:48;17.70;99.90
3156;DHT22;1588;50.892;7.082;2023-08-21T03:31:52;17.90;99.90
3156;DHT22;1588;50.892;7.082;2023-08-21T03:36:54;17.90;99.90
3156;DHT22;1588;50.892;7.082;2023-08-21T03:41:58;18.00;99.90
3156;DHT22;1588;50.892;7.082;2023-08-21T03:47:00;18.00;99.90
3156;DHT22;1588;50.892;7.082;2023-08-21T03:52:03;18.00;99.90
3156;DHT22;1588;50.892;7.082;2023-08-21T03:57:07;17.90;99.90
3156;DHT22;1588;50.892;7.082;2023-08-21T04:02:09;17.80;99.90
3156;DHT22;1588;50.892;7.082;2023-08-21T04:07:12;17.80;99.90
3156;DHT22;1588;50.892;7.082;2023-08-21T04:12:15;17.70;99.90
3156;DHT22;1588;50.892;7.082;2023-08-21T04:17:20;17.70;99.90
3156;DHT22;1588;50.892;7.082;2023-08-21T04:22:28;17.70;99.90
3156;DHT22;1588;50.892;7.082;2023-08-21T04:27:32;17.70;99.90
3156;DHT22;1588;50.892;7.082;2023-08-21T04:32:47;17.70;99.90
3156;DHT22;1588;50.892;7.082;2023-08-21T04:37:56;17.60;99.90
3156;DHT22;1588;50.892;7.082;2023-08-21T04:43:03;17.50;99.90
3156;DHT22;1588;50.892;7.082;2023-08-21T04:48:06;17.50;99.90
3156;DHT22;1588;50.892;7.082;2023-08-21T04:53:09;17.60;99.90
3156;DHT22;1588;50.892;7.082;2023-08-21T04:58:17;17.50;99.90
3156;DHT22;1588;50.892;7.082;2023-08-21T05:03:20;17.50;99.90
3156;DHT22;1588;50.892;7.082;2023-08-21T05:08:23;17.50;99.90
3156;DHT22;1588;50.892;7.082;2023-08-21T05:13:29;17.60;99.90
3156;DHT22;1588;50.892;7.082;2023-08-21T05:18:34;17.60;99.90
3156;DHT22;1588;50.892;7.082;2023-08-21T05:23:38;17.70;99.90
3156;DHT22;1588;50.892;7.082;2023-08-21T05:28:42;17.80;99.90
3156;DHT22;1588;50.892;7.082;2023-08-21T05:33:44;18.00;99.90
3156;DHT22;1588;50.892;7.082;2023-08-21T05:38:46;18.10;99.90
3156;DHT22;1588;50.892;7.082;2023-08-21T05:43:52;18.30;99.90
3156;DHT22;1588;50.892;7.082;2023-08-21T05:48:54;18.70;99.90
3156;DHT22;1588;50.892;7.082;2023-08-21T05:53:57;18.90;99.90
3156;DHT22;1588;50.892;7.082;2023-08-21T05:59:01;19.10;99.90
3156;DHT22;1588;50.892;7.082;2023-08-21T06:04:03;19.40;99.90
3156;DHT22;1588;50.892;7.082;2023-08-21T06:09:05;19.50;99.90
3156;DHT22;1588;50.892;7.082;2023-08-21T06:14:10;20.10;99.90
3156;DHT22;1588;50.892;7.082;2023-08-21T06:19:12;20.80;99.90
3156;DHT22;1588;50.892;7.082;2023-08-21T06:24:14;21.50;99.90
3156;DHT22;1588;50.892;7.082;2023-08-21T06:29:18;21.80;99.90
3156;DHT22;1588;50.892;7.082;2023-08-21T06:34:21;22.00;99.90
3156;DHT22;1588;50.892;7.082;2023-08-21T06:39:25;22.10;99.90
3156;DHT22;1588;50.892;7.082;2023-08-21T06:44:29;22.90;99.90
3156;DHT22;1588;50.892;7.082;2023-08-21T06:49:31;23.30;99.90
3156;DHT22;1588;50.892;7.082;2023-08-21T06:54:34;23.60;99.90
3156;DHT22;1588;50.892;7.082;2023-08-21T06:59:37;24.00;99.90
3156;DHT22;1588;50.892;7.082;2023-08-21T07:04:39;24.30;99.90
3156;DHT22;1588;50.892;7.082;2023-08-21T07:09:42;24.80;99.90
3156;DHT22;1588;50.892;7.082;2023-08-21T07:14:45;25.20;99.90
3156;DHT22;1588;50.892;7.082;2023-08-21T07:19:48;25.50;99.90
3156;DHT22;1588;50.892;7.082;2023-08-21T07:24:53;26.20;99.90
3156;DHT22;1588;50.892;7.082;2023-08-21T07:29:57;26.70;99.90
3156;DHT22;1588;50.892;7.082;2023-08-21T07:34:59;27.20;99.90
3156;DHT22;1588;50.892;7.082;2023-08-21T07:40:02;27.10;99.90
3156;DHT22;1588;50.892;7.082;2023-08-21T07:45:07;26.80;99.90
3156;DHT22;1588;50.892;7.082;2023-08-21T07:50:09;26.80;99.90
3156;DHT22;1588;50.892;7.082;2023-08-21T07:55:18;28.00;99.90
3156;DHT22;1588;50.892;7.082;2023-08-21T08:00:22;28.60;99.90
3156;DHT22;1588;50.892;7.082;2023-08-21T08:05:25;29.00;99.90
3156;DHT22;1588;50.892;7.082;2023-08-21T08:10:28;29.20;99.90
3156;DHT22;1588;50.892;7.082;2023-08-21T08:15:32;29.80;99.90
3156;DHT22;1588;50.892;7.082;2023-08-21T08:20:36;30.00;99.90
3156;DHT22;1588;50.892;7.082;2023-08-21T08:25:38;29.90;99.90
3156;DHT22;1588;50.892;7.082;2023-08-21T08:30:42;30.50;99.90
3156;DHT22;1588;50.892;7.082;2023-08-21T08:35:46;30.70;99.90
3156;DHT22;1588;50.892;7.082;2023-08-21T08:40:51;31.00;99.90
3156;DHT22;1588;50.892;7.082;2023-08-21T08:46:06;31.20;99.90
3156;DHT22;1588;50.892;7.082;2023-08-21T08:51:10;31.40;99.90
3156;DHT22;1588;50.892;7.082;2023-08-21T08:56:13;31.50;99.90
3156;DHT22;1588;50.892;7.082;2023-08-21T09:01:16;31.70;99.90
3156;DHT22;1588;50.892;7.082;2023-08-21T09:06:19;31.90;99.90
3156;DHT22;1588;50.892;7.082;2023-08-21T09:11:22;32.00;99.90
3156;DHT22;1588;50.892;7.082;2023-08-21T09:16:26;32.30;99.90
3156;DHT22;1588;50.892;7.082;2023-08-21T09:21:50;32.50;99.90
3156;DHT22;1588;50.892;7.082;2023-08-21T09:26:53;32.40;99.90
3156;DHT22;1588;50.892;7.082;2023-08-21T09:32:08;32.50;99.90
3156;DHT22;1588;50.892;7.082;2023-08-21T09:37:11;32.50;99.90
3156;DHT22;1588;50.892;7.082;2023-08-21T09:42:14;32.80;99.90
3156;DHT22;1588;50.892;7.082;2023-08-21T09:47:19;32.80;99.90
3156;DHT22;1588;50.892;7.082;2023-08-21T09:52:22;32.80;99.90
3156;DHT22;1588;50.892;7.082;2023-08-21T09:57:42;33.00;99.90
3156;DHT22;1588;50.892;7.082;2023-08-21T10:02:50;33.20;99.90
3156;DHT22;1588;50.892;7.082;2023-08-21T10:07:53;33.30;99.90
3156;DHT22;1588;50.892;7.082;2023-08-21T10:12:57;33.20;99.90
3156;DHT22;1588;50.892;7.082;2023-08-21T10:18:17;33.20;99.90
3156;DHT22;1588;50.892;7.082;2023-08-21T10:23:25;33.20;99.90
3156;DHT22;1588;50.892;7.082;2023-08-21T10:28:42;33.00;99.90
3156;DHT22;1588;50.892;7.082;2023-08-21T10:33:49;33.40;99.90
3156;DHT22;1588;50.892;7.082;2023-08-21T10:39:04;33.60;99.90
3156;DHT22;1588;50.892;7.082;2023-08-21T10:44:06;33.80;99.90
3156;DHT22;1588;50.892;7.082;2023-08-21T10:49:10;33.80;99.90
3156;DHT22;1588;50.892;7.082;2023-08-21T10:54:13;33.80;99.90
3156;DHT22;1588;50.892;7.082;2023-08-21T10:59:16;33.60;99.90
3156;DHT22;1588;50.892;7.082;2023-08-21T11:04:19;33.50;99.90
3156;DHT22;1588;50.892;7.082;2023-08-21T11:09:22;33.40;99.90
3156;DHT22;1588;50.892;7.082;2023-08-21T11:14:25;33.60;99.90
3156;DHT22;1588;50.892;7.082;2023-08-21T11:19:38;33.50;99.90
3156;DHT22;1588;50.892;7.082;2023-08-21T11:24:42;33.00;99.90
3156;DHT22;1588;50.892;7.082;2023-08-21T11:29:50;33.10;99.90
3156;DHT22;1588;50.892;7.082;2023-08-21T11:34:59;33.20;99.90
3156;DHT22;1588;50.892;7.082;2023-08-21T11:40:07;33.40;99.90
3156;DHT22;1588;50.892;7.082;2023-08-21T11:45:11;33.00;99.90
3156;DHT22;1588;50.892;7.082;2023-08-21T11:50:16;33.00;99.90
3156;DHT22;1588;50.892;7.082;2023-08-21T11:55:22;32.80;99.90
3156;DHT22;1588;50.892;7.082;2023-08-21T12:00:28;32.80;99.90
3156;DHT22;1588;50.892;7.082;2023-08-21T12:05:52;32.80;99.90
3156;DHT22;1588;50.892;7.082;2023-08-21T12:10:58;32.80;99.90
3156;DHT22;1588;50.892;7.082;2023-08-21T12:16:01;32.40;99.90
3156;DHT22;1588;50.892;7.082;2023-08-21T12:21:09;32.30;99.90
3156;DHT22;1588;50.892;7.082;2023-08-21T12:26:12;31.80;99.90
3156;DHT22;1588;50.892;7.082;2023-08-21T12:31:21;31.70;99.90
3156;DHT22;1588;50.892;7.082;2023-08-21T12:36:26;30.80;99.90
3156;DHT22;1588;50.892;7.082;2023-08-21T12:41:28;31.10;99.90
3156;DHT22;1588;50.892;7.082;2023-08-21T12:46:31;31.40;99.90
3156;DHT22;1588;50.892;7.082;2023-08-21T12:51:40;31.40;99.90
3156;DHT22;1588;50.892;7.082;2023-08-21T12:56:42;31.10;99.90
3156;DHT22;1588;50.892;7.082;2023-08-21T13:01:45;30.80;99.90
3156;DHT22;1588;50.892;7.082;2023-08-21T13:06:50;31.00;99.90
3156;DHT22;1588;50.892;7.082;2023-08-21T13:11:54;30.90;99.90
3156;DHT22;1588;50.892;7.082;2023-08-21T13:16:56;30.90;99.90
3156;DHT22;1588;50.892;7.082;2023-08-21T13:22:00;30.80;99.90
3156;DHT22;1588;50.892;7.082;2023-08-21T13:27:03;30.60;99.90
3156;DHT22;1588;50.892;7.082;2023-08-21T13:32:17;30.80;99.90
3156;DHT22;1588;50.892;7.082;2023-08-21T13:37:27;30.80;99.90
3156;DHT22;1588;50.892;7.082;2023-08-21T13:42:29;30.80;99.90
3156;DHT22;1588;50.892;7.082;2023-08-21T13:47:44;30.80;99.90
3156;DHT22;1588;50.892;7.082;2023-08-21T13:52:51;30.70;99.90
3156;DHT22;1588;50.892;7.082;2023-08-21T13:57:54;30.60;99.90
3156;DHT22;1588;50.892;7.082;2023-08-21T14:03:00;30.70;99.90
3156;DHT22;1588;50.892;7.082;2023-08-21T14:08:06;30.60;99.90
3156;DHT22;1588;50.892;7.082;2023-08-21T14:13:12;30.50;99.90
3156;DHT22;1588;50.892;7.082;2023-08-21T14:18:15;30.60;99.90
3156;DHT22;1588;50.892;7.082;2023-08-21T14:23:19;30.70;99.90
3156;DHT22;1588;50.892;7.082;2023-08-21T14:28:21;30.70;99.90
3156;DHT22;1588;50.892;7.082;2023-08-21T14:33:24;30.70;99.90
3156;DHT22;1588;50.892;7.082;2023-08-21T14:38:28;30.70;99.90
3156;DHT22;1588;50.892;7.082;2023-08-21T14:43:31;30.50;99.90
3156;DHT22;1588;50.892;7.082;2023-08-21T14:48:36;30.70;99.90
3156;DHT22;1588;50.892;7.082;2023-08-21T14:53:40;30.40;99.90
3156;DHT22;1588;50.892;7.082;2023-08-21T14:58:42;30.40;99.90
3156;DHT22;1588;50.892;7.082;2023-08-21T15:03:45;30.20;99.90
3156;DHT22;1588;50.892;7.082;2023-08-21T15:08:51;29.90;99.90
3156;DHT22;1588;50.892;7.082;2023-08-21T15:14:03;29.90;99.90
3156;DHT22;1588;50.892;7.082;2023-08-21T15:19:13;29.70;99.90
3156;DHT22;1588;50.892;7.082;2023-08-21T15:24:21;29.50;99.90
3156;DHT22;1588;50.892;7.082;2023-08-21T15:29:32;29.40;99.90
3156;DHT22;1588;50.892;7.082;2023-08-21T15:34:51;29.50;99.90
3156;DHT22;1588;50.892;7.082;2023-08-21T15:39:55;29.50;99.90
3156;DHT22;1588;50.892;7.082;2023-08-21T15:45:00;29.40;99.90
3156;DHT22;1588;50.892;7.082;2023-08-21T15:50:03;29.30;99.90
3156;DHT22;1588;50.892;7.082;2023-08-21T15:55:18;29.10;99.90
3156;DHT22;1588;50.892;7.082;2023-08-21T16:00:21;29.00;99.90
3156;DHT22;1588;50.892;7.082;2023-08-21T16:05:24;28.90;99.90
3156;DHT22;1588;50.892;7.082;2023-08-21T16:10:28;28.60;99.90
3156;DHT22;1588;50.892;7.082;2023-08-21T16:15:30;28.60;99.90
3156;DHT22;1588;50.892;7.082;2023-08-21T16:20:32;28.60;99.90
3156;DHT22;1588;50.892;7.082;2023-08-21T16:25:36;28.60;99.90
3156;DHT22;1588;50.892;7.082;2023-08-21T16:30:38;28.50;99.90
3156;DHT22;1588;50.892;7.082;2023-08-21T16:35:41;28.20;99.90
3156;DHT22;1588;50.892;7.082;2023-08-21T16:40:45;28.10;99.90
3156;DHT22;1588;50.892;7.082;2023-08-21T16:45:47;28.10;99.90
3156;DHT22;1588;50.892;7.082;2023-08-21T16:50:49;28.10;99.90
3156;DHT22;1588;50.892;7.082;2023-08-21T16:55:53;28.00;99.90
3156;DHT22;1588;50.892;7.082;2023-08-21T17:00:56;27.80;99.90
3156;DHT22;1588;50.892;7.082;2023-08-21T17:05:58;27.70;99.90
3156;DHT22;1588;50.892;7.082;2023-08-21T17:11:02;27.50;99.90
3156;DHT22;1588;50.892;7.082;2023-08-21T17:16:04;27.50;99.90
3156;DHT22;1588;50.892;7.082;2023-08-21T17:21:07;27.40;99.90
3156;DHT22;1588;50.892;7.082;2023-08-21T17:26:11;27.20;99.90
3156;DHT22;1588;50.892;7.082;2023-08-21T17:31:15;27.10;99.90
3156;DHT22;1588;50.892;7.082;2023-08-21T17:36:17;27.00;99.90
3156;DHT22;1588;50.892;7.082;2023-08-21T17:41:21;26.90;99.90
3156;DHT22;1588;50.892;7.082;2023-08-21T17:46:24;26.70;99.90
3156;DHT22;1588;50.892;7.082;2023-08-21T17:51:35;26.40;99.90
3156;DHT22;1588;50.892;7.082;2023-08-21T17:56:42;26.30;99.90
3156;DHT22;1588;50.892;7.082;2023-08-21T18:01:44;26.10;99.90
3156;DHT22;1588;50.892;7.082;2023-08-21T18:06:47;25.90;99.90
3156;DHT22;1588;50.892;7.082;2023-08-21T18:11:51;25.80;99.90
3156;DHT22;1588;50.892;7.082;2023-08-21T18:16:58;25.50;99.90
3156;DHT22;1588;50.892;7.082;2023-08-21T18:22:06;25.40;99.90
3156;DHT22;1588;50.892;7.082;2023-08-21T18:27:10;25.20;99.90
3156;DHT22;1588;50.892;7.082;2023-08-21T18:32:14;25.00;99.90
3156;DHT22;1588;50.892;7.082;2023-08-21T18:37:16;24.90;99.90
3156;DHT22;1588;50.892;7.082;2023-08-21T18:42:20;24.80;99.90
3156;DHT22;1588;50.892;7.082;2023-08-21T18:47:23;24.50;99.90
3156;DHT22;1588;50.892;7.082;2023-08-21T18:52:47;24.20;99.90
3156;DHT22;1588;50.892;7.082;2023-08-21T18:57:50;24.00;99.90
3156;DHT22;1588;50.892;7.082;2023-08-21T19:02:53;23.70;99.90
3156;DHT22;1588;50.892;7.082;2023-08-21T19:07:55;23.40;99.90
3156;DHT22;1588;50.892;7.082;2023-08-21T19:13:00;23.30;99.90
3156;DHT22;1588;50.892;7.082;2023-08-21T19:18:04;23.10;99.90
3156;DHT22;1588;50.892;7.082;2023-08-21T19:23:06;23.00;99.90
3156;DHT22;1588;50.892;7.082;2023-08-21T19:28:10;22.70;99.90
3156;DHT22;1588;50.892;7.082;2023-08-21T19:33:14;22.60;99.90
3156;DHT22;1588;50.892;7.082;2023-08-21T19:38:16;22.30;99.90
3156;DHT22;1588;50.892;7.082;2023-08-21T19:43:21;22.20;99.90
3156;DHT22;1588;50.892;7.082;2023-08-21T19:48:24;22.10;99.90
3156;DHT22;1588;50.892;7.082;2023-08-21T19:53:26;21.90;99.90
3156;DHT22;1588;50.892;7.082;2023-08-21T19:58:33;21.70;99.90
3156;DHT22;1588;50.892;7.082;2023-08-21T20:03:35;21.60;99.90
3156;DHT22;1588;50.892;7.082;2023-08-21T20:08:38;21.50;99.90
3156;DHT22;1588;50.892;7.082;2023-08-21T20:13:43;21.50;99.90
3156;DHT22;1588;50.892;7.082;2023-08-21T20:18:46;21.40;99.90
3156;DHT22;1588;50.892;7.082;2023-08-21T20:23:48;21.30;99.90
3156;DHT22;1588;50.892;7.082;2023-08-21T20:28:52;21.20;99.90
3156;DHT22;1588;50.892;7.082;2023-08-21T20:33:54;21.10;99.90
3156;DHT22;1588;50.892;7.082;2023-08-21T20:38:57;20.90;99.90
3156;DHT22;1588;50.892;7.082;2023-08-21T20:44:01;20.80;99.90
3156;DHT22;1588;50.892;7.082;2023-08-21T20:49:03;20.70;99.90
3156;DHT22;1588;50.892;7.082;2023-08-21T20:54:08;20.60;99.90
3156;DHT22;1588;50.892;7.082;2023-08-21T20:59:12;20.50;99.90
3156;DHT22;1588;50.892;7.082;2023-08-21T21:04:17;20.50;99.90
3156;DHT22;1588;50.892;7.082;2023-08-21T21:09:19;20.40;99.90
3156;DHT22;1588;50.892;7.082;2023-08-21T21:14:23;20.30;99.90
3156;DHT22;1588;50.892;7.082;2023-08-21T21:19:25;20.20;99.90
3156;DHT22;1588;50.892;7.082;2023-08-21T21:24:30;20.10;99.90
3156;DHT22;1588;50.892;7.082;2023-08-21T21:29:34;20.20;99.90
3156;DHT22;1588;50.892;7.082;2023-08-21T21:34:36;20.10;99.90
3156;DHT22;1588;50.892;7.082;2023-08-21T21:39:38;20.10;99.90
3156;DHT22;1588;50.892;7.082;2023-08-21T21:44:42;20.10;99.90
3156;DHT22;1588;50.892;7.082;2023-08-21T21:49:44;20.00;99.90
3156;DHT22;1588;50.892;7.082;2023-08-21T21:54:47;19.80;99.90
3156;DHT22;1588;50.892;7.082;2023-08-21T21:59:50;19.80;99.90
3156;DHT22;1588;50.892;7.082;2023-08-21T22:04:53;19.70;99.90
3156;DHT22;1588;50.892;7.082;2023-08-21T22:09:55;19.60;99.90
3156;DHT22;1588;50.892;7.082;2023-08-21T22:14:59;19.50;99.90
3156;DHT22;1588;50.892;7.082;2023-08-21T22:20:01;19.40;99.90
3156;DHT22;1588;50.892;7.082;2023-08-21T22:25:05;19.30;99.90
3156;DHT22;1588;50.892;7.082;2023-08-21T22:30:10;19.30;99.90
3156;DHT22;1588;50.892;7.082;2023-08-21T22:35:13;19.20;99.90
3156;DHT22;1588;50.892;7.082;2023-08-21T22:40:16;19.10;99.90
3156;DHT22;1588;50.892;7.082;2023-08-21T22:45:19;19.10;99.90
3156;DHT22;1588;50.892;7.082;2023-08-21T22:50:21;19.10;99.90
3156;DHT22;1588;50.892;7.082;2023-08-21T22:55:24;19.00;99.90
3156;DHT22;1588;50.892;7.082;2023-08-21T23:00:28;18.90;99.90
3156;DHT22;1588;50.892;7.082;2023-08-21T23:05:30;18.80;99.90
3156;DHT22;1588;50.892;7.082;2023-08-21T23:10:32;18.70;99.90
3156;DHT22;1588;50.892;7.082;2023-08-21T23:15:38;18.60;99.90
3156;DHT22;1588;50.892;7.082;2023-08-21T23:20:44;18.60;99.90
3156;DHT22;1588;50.892;7.082;2023-08-21T23:25:47;18.60;99.90
3156;DHT22;1588;50.892;7.082;2023-08-21T23:30:54;18.50;99.90
3156;DHT22;1588;50.892;7.082;2023-08-21T23:35:57;18.50;99.90
3156;DHT22;1588;50.892;7.082;2023-08-21T23:41:00;18.50;99.90
3156;DHT22;1588;50.892;7.082;2023-08-21T23:46:04;18.30;99.90
3156;DHT22;1588;50.892;7.082;2023-08-21T23:51:07;18.30;99.90
3156;DHT22;1588;50.892;7.082;2023-08-21T23:56:09;18.40;99.90
